createdAt,value
2023-04-15T00:03:31.854Z,7.56
2023-04-15T00:07:33.757Z,7.61
2023-04-15T00:11:35.519Z,7.70
2023-04-15T00:15:37.641Z,7.58
2023-04-15T00:19:39.185Z,7.51
2023-04-15T00:23:40.940Z,7.45
2023-04-15T00:27:42.405Z,7.58
2023-04-15T00:31:44.642Z,7.63
2023-04-15T00:35:48.279Z,7.48
2023-04-15T00:39:50.403Z,7.43
2023-04-15T00:43:52.139Z,7.48
2023-04-15T00:47:53.854Z,7.40
2023-04-15T00:51:55.669Z,7.47
2023-04-15T00:55:57.200Z,7.56
2023-04-15T00:59:58.896Z,7.57
2023-04-15T01:04:00.403Z,7.48
2023-04-15T01:08:02.877Z,7.51
2023-04-15T01:12:05.013Z,7.49
2023-04-15T01:16:07.581Z,7.62
2023-04-15T01:20:12.224Z,7.54
2023-04-15T01:24:18.112Z,7.57
2023-04-15T01:28:20.331Z,7.61
2023-04-15T01:32:21.805Z,7.58
2023-04-15T01:36:23.217Z,7.66
2023-04-15T01:40:24.958Z,7.57
2023-04-15T01:44:26.434Z,7.68
2023-04-15T01:48:28.208Z,7.67
2023-04-15T01:52:29.727Z,7.56
2023-04-15T01:56:31.183Z,7.64
2023-04-15T02:00:32.690Z,7.52
2023-04-15T02:04:34.257Z,7.66
2023-04-15T02:08:35.659Z,7.63
2023-04-15T02:12:37.152Z,7.60
2023-04-15T02:16:38.697Z,7.65
2023-04-15T02:20:40.557Z,7.58
2023-04-15T02:24:41.999Z,7.66
2023-04-15T02:28:43.477Z,7.50
2023-04-15T02:32:45.438Z,7.55
2023-04-15T02:36:48.636Z,7.57
2023-04-15T02:40:50.925Z,7.60
2023-04-15T02:44:52.364Z,7.51
2023-04-15T02:48:53.872Z,7.66
2023-04-15T02:52:55.341Z,7.52
2023-04-15T02:56:56.858Z,7.59
2023-04-15T03:00:58.286Z,7.65
2023-04-15T03:04:59.701Z,7.61
2023-04-15T03:09:02.365Z,7.77
2023-04-15T03:13:03.927Z,7.74
2023-04-15T03:17:05.393Z,7.77
2023-04-15T03:21:07.240Z,7.71
2023-04-15T03:25:09.178Z,7.86
2023-04-15T03:29:10.733Z,7.82
2023-04-15T03:33:12.258Z,7.88
2023-04-15T03:37:13.728Z,7.84
2023-04-15T03:41:15.110Z,7.80
2023-04-15T03:45:16.673Z,7.78
2023-04-15T03:49:19.278Z,7.85
2023-04-15T03:53:21.338Z,7.91
2023-04-15T03:57:22.785Z,7.88
2023-04-15T04:01:24.260Z,7.86
2023-04-15T04:05:25.784Z,7.95
2023-04-15T04:09:27.777Z,7.95
2023-04-15T04:13:29.169Z,8.00
2023-04-15T04:17:30.684Z,7.95
2023-04-15T04:21:34.094Z,8.02
2023-04-15T04:25:35.542Z,8.00
2023-04-15T04:29:36.955Z,8.05
2023-04-15T04:33:38.425Z,8.07
2023-04-15T04:37:39.894Z,7.95
2023-04-15T04:41:41.681Z,8.19
2023-04-15T04:45:43.157Z,8.07
2023-04-15T04:49:44.629Z,8.10
2023-04-15T04:53:46.091Z,8.18
2023-04-15T04:57:47.509Z,8.25
2023-04-15T05:01:49.298Z,8.16
2023-04-15T05:05:50.762Z,8.23
2023-04-15T05:09:52.160Z,8.25
2023-04-15T05:13:53.670Z,8.27
2023-04-15T05:17:55.230Z,8.32
2023-04-15T05:21:56.683Z,8.35
2023-04-15T05:25:58.160Z,8.34
2023-04-15T05:29:59.709Z,8.38
2023-04-15T05:34:01.540Z,8.37
2023-04-15T05:38:03.000Z,8.43
2023-04-15T05:42:05.981Z,8.39
2023-04-15T05:46:08.534Z,8.47
2023-04-15T05:50:10.691Z,8.50
2023-04-15T05:54:12.116Z,8.69
2023-04-15T05:58:13.650Z,8.80
2023-04-15T06:02:15.398Z,8.81
2023-04-15T06:06:16.899Z,8.98
2023-04-15T06:10:18.371Z,8.99
2023-04-15T06:14:19.982Z,8.90
2023-04-15T06:18:21.485Z,8.95
2023-04-15T06:22:23.643Z,8.89
2023-04-15T06:26:25.173Z,9.09
2023-04-15T06:30:26.730Z,9.11
2023-04-15T06:34:28.208Z,9.05
2023-04-15T06:38:29.641Z,9.30
2023-04-15T06:42:31.075Z,9.27
2023-04-15T06:46:32.732Z,9.48
2023-04-15T06:50:35.625Z,9.53
2023-04-15T06:54:37.533Z,9.62
2023-04-15T06:58:38.949Z,9.63
2023-04-15T07:02:40.563Z,9.77
2023-04-15T07:06:42.807Z,9.80
2023-04-15T07:10:44.371Z,9.94
2023-04-15T07:14:45.888Z,10.14
2023-04-15T07:18:47.313Z,10.12
2023-04-15T07:22:48.781Z,10.11
2023-04-15T07:26:50.253Z,10.03
2023-04-15T07:30:51.712Z,9.73
2023-04-15T07:34:53.481Z,9.67
2023-04-15T07:38:55.407Z,9.61
2023-04-15T07:42:58.408Z,9.61
2023-04-15T07:46:59.907Z,9.57
2023-04-15T07:51:02.335Z,9.51
2023-04-15T07:55:04.072Z,9.48
2023-04-15T07:59:06.485Z,9.39
2023-04-15T08:03:08.098Z,9.36
2023-04-15T08:07:09.734Z,9.47
2023-04-15T08:11:11.489Z,9.55
2023-04-15T08:15:13.365Z,9.37
2023-04-15T08:19:14.810Z,9.36
2023-04-15T08:23:16.266Z,9.46
2023-04-15T08:27:17.959Z,9.21
2023-04-15T08:31:20.155Z,9.17
2023-04-15T08:35:22.142Z,9.26
2023-04-15T08:39:23.696Z,9.53
2023-04-15T08:43:30.283Z,9.47
2023-04-15T08:47:32.073Z,9.30
2023-04-15T08:51:33.959Z,9.28
2023-04-15T08:55:36.769Z,9.32
2023-04-15T08:59:38.831Z,9.46
2023-04-15T09:03:40.706Z,9.15
2023-04-15T09:07:42.318Z,9.40
2023-04-15T09:11:43.796Z,9.58
2023-04-15T09:15:45.763Z,9.74
2023-04-15T09:19:47.364Z,9.64
2023-04-15T09:24:02.010Z,9.88
2023-04-15T09:28:04.183Z,9.84
2023-04-15T09:32:13.860Z,9.73
2023-04-15T09:36:15.529Z,9.72
2023-04-15T09:40:37.247Z,9.71
2023-04-15T09:44:38.761Z,9.56
2023-04-15T09:48:40.307Z,9.48
2023-04-15T09:52:43.397Z,9.58
2023-04-15T09:56:45.576Z,9.55
2023-04-15T10:00:52.193Z,9.71
2023-04-15T10:04:54.665Z,9.59
2023-04-15T10:08:57.958Z,9.60
2023-04-15T10:12:59.483Z,9.52
2023-04-15T10:17:05.569Z,9.62
2023-04-15T10:21:08.680Z,9.61
2023-04-15T10:25:11.723Z,9.63
2023-04-15T10:29:14.006Z,9.52
2023-04-15T10:33:20.036Z,9.58
2023-04-15T10:37:23.487Z,9.57
2023-04-15T10:41:27.870Z,9.71
2023-04-15T10:45:34.532Z,9.60
2023-04-15T10:49:45.050Z,9.52
2023-04-15T10:53:46.856Z,9.68
2023-04-15T10:57:54.229Z,9.68
2023-04-15T11:02:02.852Z,9.63
2023-04-15T11:06:06.203Z,9.57
2023-04-15T11:10:13.726Z,9.63
2023-04-15T11:14:16.319Z,9.60
2023-04-15T11:18:33.069Z,9.57
2023-04-15T11:22:34.550Z,9.61
2023-04-15T11:26:36.068Z,9.52
2023-04-15T11:30:38.193Z,9.58
2023-04-15T11:34:39.631Z,9.54
2023-04-15T11:38:45.259Z,9.53
2023-04-15T11:42:50.257Z,9.55
2023-04-15T11:46:51.896Z,9.56
2023-04-15T11:51:03.796Z,9.67
2023-04-15T11:55:08.232Z,9.78
2023-04-15T11:59:09.942Z,9.76
2023-04-15T12:03:12.944Z,9.87
2023-04-15T12:07:14.712Z,10.15
2023-04-15T12:11:27.597Z,10.11
2023-04-15T12:15:29.233Z,9.91
2023-04-15T12:19:36.240Z,10.07
2023-04-15T12:23:51.464Z,9.97
2023-04-15T12:27:59.652Z,9.96
2023-04-15T12:32:12.918Z,10.14
2023-04-15T12:36:14.731Z,10.12
2023-04-15T12:40:22.989Z,10.30
2023-04-15T12:44:24.500Z,10.30
2023-04-15T12:48:31.457Z,10.20
2023-04-15T12:52:33.614Z,10.21
2023-04-15T12:57:08.725Z,10.09
2023-04-15T13:01:00.684Z,10.30
2023-04-15T13:05:02.181Z,10.24
2023-04-15T13:09:05.869Z,10.46
2023-04-15T13:13:10.862Z,10.32
2023-04-15T13:17:17.580Z,10.39
2023-04-15T13:21:29.151Z,10.34
2023-04-15T13:29:49.212Z,10.24
2023-04-15T13:33:50.804Z,10.27
2023-04-15T13:37:54.138Z,10.29
2023-04-15T13:41:55.939Z,10.43
2023-04-15T13:45:57.491Z,10.40
2023-04-15T13:49:58.937Z,10.22
2023-04-15T13:54:00.406Z,10.36
2023-04-15T13:58:01.920Z,10.22
2023-04-15T14:02:03.649Z,10.22
2023-04-15T14:06:06.066Z,10.30
2023-04-15T14:10:08.161Z,10.38
2023-04-15T14:14:09.645Z,10.32
2023-04-15T14:18:11.156Z,10.41
2023-04-15T14:22:12.641Z,10.42
2023-04-15T14:26:14.561Z,10.40
2023-04-15T14:30:16.048Z,10.37
2023-04-15T14:34:17.843Z,10.54
2023-04-15T14:38:19.249Z,10.54
2023-04-15T14:42:20.854Z,10.55
2023-04-15T14:46:22.966Z,10.63
2023-04-15T14:50:24.496Z,10.53
2023-04-15T14:54:26.032Z,10.41
2023-04-15T14:58:27.433Z,10.36
2023-04-15T15:02:39.091Z,10.50
2023-04-15T15:06:42.014Z,10.50
2023-04-15T15:10:48.391Z,10.22
2023-04-15T15:14:51.298Z,10.25
2023-04-15T15:18:52.841Z,10.33
2023-04-15T15:22:54.568Z,10.38
2023-04-15T15:26:59.999Z,10.47
2023-04-15T15:31:01.623Z,10.46
2023-04-15T15:35:03.193Z,10.31
2023-04-15T15:39:05.321Z,10.30
2023-04-15T15:43:06.885Z,10.39
2023-04-15T15:47:08.623Z,10.54
2023-04-15T15:51:10.282Z,10.37
2023-04-15T15:55:11.797Z,10.35
2023-04-15T15:59:13.253Z,10.31
2023-04-15T16:03:15.512Z,10.39
2023-04-15T16:07:17.160Z,10.35
2023-04-15T16:11:18.710Z,10.25
2023-04-15T16:15:20.226Z,10.37
2023-04-15T16:19:21.835Z,10.15
2023-04-15T16:23:23.830Z,10.07
2023-04-15T16:27:25.312Z,10.34
2023-04-15T16:31:26.828Z,10.39
2023-04-15T16:35:28.366Z,10.20
2023-04-15T16:39:29.881Z,10.22
2023-04-15T16:43:31.391Z,10.35
2023-04-15T16:47:32.904Z,10.09
2023-04-15T16:51:34.565Z,10.19
2023-04-15T16:55:36.185Z,10.19
2023-04-15T16:59:38.068Z,10.09
2023-04-15T17:03:40.028Z,10.08
2023-04-15T17:07:41.627Z,10.11
2023-04-15T17:11:44.498Z,10.19
2023-04-15T17:15:46.057Z,10.05
2023-04-15T17:19:47.729Z,10.09
2023-04-15T17:23:50.434Z,10.12
2023-04-15T17:27:51.872Z,10.23
2023-04-15T17:31:55.012Z,10.22
2023-04-15T17:35:57.700Z,10.19
2023-04-15T17:39:59.136Z,10.20
2023-04-15T17:44:00.581Z,10.16
2023-04-15T17:48:03.645Z,10.14
2023-04-15T17:52:05.342Z,10.08
2023-04-15T17:56:06.906Z,10.16
2023-04-15T18:00:10.151Z,10.19
2023-04-15T18:04:12.384Z,10.26
2023-04-15T18:08:14.179Z,10.09
2023-04-15T18:12:15.934Z,10.04
2023-04-15T18:16:17.505Z,10.07
2023-04-15T18:20:19.154Z,10.08
2023-04-15T18:24:20.842Z,10.18
2023-04-15T18:28:22.855Z,10.03
2023-04-15T18:32:25.111Z,10.08
2023-04-15T18:36:26.654Z,10.07
2023-04-15T18:40:28.129Z,10.01
2023-04-15T18:44:29.781Z,9.95
2023-04-15T18:48:31.346Z,9.88
2023-04-15T18:52:33.746Z,9.93
2023-04-15T18:56:35.488Z,9.89
2023-04-15T19:00:41.484Z,9.87
2023-04-15T19:04:43.182Z,9.92
2023-04-15T19:08:44.677Z,9.74
2023-04-15T19:12:46.093Z,9.64
2023-04-15T19:16:48.106Z,9.86
2023-04-15T19:20:59.519Z,9.77
2023-04-15T19:25:11.700Z,9.72
2023-04-15T19:29:13.126Z,9.76
2023-04-15T19:33:17.720Z,9.83
2023-04-15T19:37:19.325Z,9.70
2023-04-15T19:41:20.878Z,9.68
2023-04-15T19:45:22.453Z,9.67
2023-04-15T19:49:25.886Z,9.68
2023-04-15T19:53:27.418Z,9.68
2023-04-15T19:57:28.888Z,9.71
2023-04-15T20:01:30.537Z,9.69
2023-04-15T20:05:32.117Z,9.65
2023-04-15T20:09:33.614Z,9.59
2023-04-15T20:13:35.142Z,9.58
2023-04-15T20:17:37.042Z,9.48
2023-04-15T20:21:39.064Z,9.54
2023-04-15T20:25:41.954Z,9.54
2023-04-15T20:29:43.377Z,9.56
2023-04-15T20:33:45.122Z,9.55
2023-04-15T20:37:46.556Z,9.41
2023-04-15T20:41:49.668Z,9.42
2023-04-15T20:45:52.160Z,9.43
2023-04-15T20:49:54.159Z,9.36
2023-04-15T20:53:55.689Z,9.45
2023-04-15T20:57:58.207Z,9.49
2023-04-15T21:01:59.724Z,9.36
2023-04-15T21:06:01.232Z,9.35
2023-04-15T21:10:02.720Z,9.42
2023-04-15T21:14:07.537Z,9.41
2023-04-15T21:18:08.984Z,9.34
2023-04-15T21:22:10.486Z,9.45
2023-04-15T21:26:11.975Z,9.35
2023-04-15T21:30:13.487Z,9.41
2023-04-15T21:34:14.943Z,9.35
2023-04-15T21:38:16.620Z,9.40
2023-04-15T21:42:18.096Z,9.34
2023-04-15T21:46:21.822Z,9.20
2023-04-15T21:50:25.448Z,9.26
2023-04-15T21:54:28.283Z,9.25
2023-04-15T21:58:29.849Z,9.35
2023-04-15T22:02:31.404Z,9.25
2023-04-15T22:06:32.978Z,9.28
2023-04-15T22:10:37.893Z,9.20
2023-04-15T22:14:39.420Z,9.25
2023-04-15T22:18:40.869Z,9.27
2023-04-15T22:22:43.980Z,9.21
2023-04-15T22:26:46.226Z,9.11
2023-04-15T22:30:47.688Z,9.18
2023-04-15T22:34:49.124Z,9.21
2023-04-15T22:38:50.540Z,9.25
2023-04-15T22:42:52.076Z,9.28
2023-04-15T22:46:53.508Z,9.28
2023-04-15T22:50:54.973Z,9.26
2023-04-15T22:54:56.501Z,9.28
2023-04-15T22:58:58.071Z,9.29
2023-04-15T23:02:59.601Z,9.25
2023-04-15T23:07:01.215Z,9.30
2023-04-15T23:11:02.790Z,9.39
2023-04-15T23:15:04.565Z,9.31
2023-04-15T23:19:06.187Z,9.21
2023-04-15T23:23:07.642Z,9.19
2023-04-15T23:27:09.184Z,9.24
2023-04-15T23:31:11.232Z,9.32
2023-04-15T23:35:13.941Z,9.32
2023-04-15T23:39:15.750Z,9.23
2023-04-15T23:43:17.188Z,9.20
2023-04-15T23:47:18.630Z,9.25
2023-04-15T23:51:20.097Z,9.21
2023-04-15T23:55:21.675Z,9.20
2023-04-15T23:59:23.163Z,9.10
